Flight Track Log - Related Links

Times and Time Zones

All times are in EDT time to prevent confusion due to time zone crossing. See the N531QS flight status page for this flight to view local times or setup timezone preferences in your user account.

Time Position Orientation Groundspeed Altitude Reporting Facility
EDT Latitude Longitude Course Direction KTS MPH feet Rate Location/Type
Sun 11:52:59 AM 33.6333 -111.9000 331° Northwest 185 213 2,600  Level Phoenix TRACON
Sun 11:54:00 AM 33.6833 -111.9333 331° Northwest 260 299 5,700 2,367 Climbing Phoenix TRACON
Sun 11:55:26 AM 33.7647 -111.9075 15° North 275 316 8,400 2,351 Climbing Albuquerque Center
Sun 11:56:28 AM 33.8250 -111.8486 39° Northeast 279 321 11,500 3,242 Climbing Albuquerque Center
Sun 11:57:30 AM 33.9133 -111.7869 30° Northeast 319 367 15,100 3,145 Climbing Albuquerque Center
Sun 11:58:32 AM 34.0011 -111.7397 24° Northeast 334 384 18,000 2,390 Climbing Albuquerque Center
Sun 11:59:33 AM 34.0697 -111.6617 43° Northeast 364 419 20,000 1,707 Climbing Albuquerque Center
Sun 12:00:35 PM 34.1483 -111.5744 43° Northeast 393 452 21,500 1,694 Climbing Albuquerque Center
Sun 12:01:37 PM 34.2472 -111.4644 43° Northeast 402 463 23,500 1,790 Climbing Albuquerque Center
Sun 12:02:39 PM 34.3342 -111.3692 42° Northeast 419 482 25,200 1,694 Climbing Albuquerque Center
Sun 12:03:41 PM 34.4208 -111.2719 43° Northeast 424 488 27,000 1,694 Climbing Albuquerque Center
Sun 12:04:43 PM 34.5111 -111.1711 43° Northeast 435 501 28,700 1,742 Climbing Albuquerque Center
Sun 12:05:45 PM 34.6039 -111.0664 43° Northeast 448 516 30,600 1,742 Climbing Albuquerque Center
Sun 12:06:47 PM 34.6983 -110.9608 43° Northeast 459 528 32,300 1,161 Climbing Albuquerque Center
Sun 12:07:49 PM 34.8125 -110.8297 43° Northeast 468 539 33,000 341 Climbing Albuquerque Center
Sun 12:08:50 PM 34.9158 -110.7119 43° Northeast 479 551 33,000  Level Albuquerque Center
Sun 12:09:52 PM 35.0083 -110.6047 43° Northeast 480 552 33,000 194 Level Albuquerque Center
Sun 12:10:54 PM 35.1172 -110.4822 43° Northeast 477 549 33,400 677 Climbing Albuquerque Center
Sun 12:11:56 PM 35.2086 -110.3750 44° Northeast 475 547 34,400 968 Climbing Albuquerque Center
Sun 12:12:58 PM 35.3003 -110.2700 43° Northeast 472 543 35,400 1,016 Climbing Albuquerque Center
Sun 12:14:00 PM 35.4075 -110.1475 43° Northeast 471 542 36,500 774 Climbing Albuquerque Center
Sun 12:15:02 PM 35.4981 -110.0422 43° Northeast 469 540 37,000 726 Climbing Albuquerque Center
Sun 12:16:04 PM 35.6025 -109.9211 43° Northeast 463 533 38,000 968 Climbing Albuquerque Center
Sun 12:17:06 PM 35.6886 -109.8169 44° Northeast 457 526 39,000 484 Climbing Albuquerque Center
Sun 12:18:08 PM 35.7753 -109.6803 52° Northeast 453 521 39,000  Level Albuquerque Center
Sun 12:19:10 PM 35.8500 -109.5594 53° Northeast 459 528 39,000  Level Albuquerque Center
Sun 12:20:12 PM 35.9383 -109.4197 52° Northeast 461 531 39,000  Level Albuquerque Center
Sun 12:21:14 PM 36.0128 -109.3003 52° Northeast 459 528 39,000  Level Albuquerque Center
Sun 12:22:16 PM 36.1003 -109.1592 52° Northeast 459 528 39,000  Level Albuquerque Center
Sun 12:23:18 PM 36.1775 -109.0361 52° Northeast 468 539 39,000  Level Albuquerque Center
Sun 12:24:20 PM 36.2553 -108.9131 52° Northeast 465 535 39,000  Level Albuquerque Center
Sun 12:25:22 PM 36.3583 -108.7869 45° Northeast 462 532 39,000  Level Albuquerque Center
Sun 12:26:24 PM 36.4461 -108.6808 44° Northeast 459 528 39,000  Level Albuquerque Center
Sun 12:27:56 PM 36.5928 -108.5033 44° Northeast 458 527 39,000  Level Denver Center
Sun 12:28:58 PM 36.6806 -108.3975 44° Northeast 459 528 39,000  Level Denver Center
Sun 12:30:00 PM 36.7825 -108.2742 44° Northeast 458 527 39,000  Level Denver Center
Sun 12:31:02 PM 36.8686 -108.1686 44° Northeast 454 522 39,000  Level Denver Center
Sun 12:32:04 PM 36.9550 -108.0636 44° Northeast 453 521 39,000  Level Denver Center
Sun 12:33:06 PM 37.0539 -107.9403 45° Northeast 451 519 39,000  Level Denver Center
Sun 12:34:08 PM 37.1389 -107.8367 44° Northeast 447 514 39,000  Level Denver Center
Sun 12:35:10 PM 37.2381 -107.7142 45° Northeast 448 516 39,000  Level Denver Center
Sun 12:36:12 PM 37.3231 -107.6092 44° Northeast 448 516 39,000  Level Denver Center
Sun 12:37:14 PM 37.4219 -107.4853 45° Northeast 448 516 39,000  Level Denver Center
Sun 12:38:16 PM 37.5047 -107.3803 45° Northeast 444 511 39,000  Level Denver Center
Sun 12:39:18 PM 37.6025 -107.2567 45° Northeast 445 512 39,000  Level Denver Center
Sun 12:40:20 PM 37.6864 -107.1508 45° Northeast 444 511 39,000  Level Denver Center
Sun 12:41:22 PM 37.7847 -107.0261 45° Northeast 448 516 39,000  Level Denver Center
Sun 12:42:25 PM 37.8669 -106.9219 45° Northeast 446 513 39,000  Level Denver Center
Sun 12:43:27 PM 37.9647 -106.7972 45° Northeast 446 513 39,000  Level Denver Center
Sun 12:44:29 PM 38.0478 -106.6897 46° Northeast 447 514 39,000  Level Denver Center
Sun 12:45:31 PM 38.1467 -106.5639 45° Northeast 450 518 39,000 -339 Level Denver Center
Sun 12:46:33 PM 38.2281 -106.4611 45° Northeast 448 516 38,300 -1,306 Descending Denver Center
Sun 12:47:35 PM 38.3142 -106.3481 46° Northeast 446 513 36,300 -2,129 Descending Denver Center
Sun 12:48:37 PM 38.4019 -106.2356 45° Northeast 447 514 33,900 -2,565 Descending Denver Center
Sun 12:49:39 PM 38.5136 -106.0875 46° Northeast 464 534 31,000 -2,419 Descending Denver Center
Sun 12:50:41 PM 38.6019 -105.9722 46° Northeast 472 543 28,900 -2,177 Descending Denver Center
Sun 12:51:43 PM 38.7008 -105.8422 46° Northeast 458 527 26,500 -2,081 Descending Denver Center
Sun 12:52:45 PM 38.7836 -105.7322 46° Northeast 448 516 24,600 -1,839 Descending Denver Center
Sun 12:53:47 PM 38.8625 -105.6272 46° Northeast 434 499 22,700 -1,935 Descending Denver Center
Sun 12:54:49 PM 38.9528 -105.5083 46° Northeast 419 482 20,600 -1,839 Descending Denver Center
Sun 12:55:51 PM 39.0242 -105.4111 47° Northeast 405 466 18,900 -1,632 Descending Denver Center
Sun 12:56:54 PM 39.0967 -105.3158 46° Northeast 381 438 17,200 -1,680 Descending Denver Center
Sun 12:57:56 PM 39.1733 -105.2142 46° Northeast 329 379 15,400 -1,548 Descending Denver Center
Sun 12:58:58 PM 39.1919 -105.1078 77° East 305 351 14,000 -1,333 Descending Denver Center
Sun 01:00:02 PM 39.1803 -104.9908 97° East 307 353 12,600 -1,381 Descending Denver Center
Sun 01:01:04 PM 39.2061 -104.8939 71° East 291 335 11,100 -774 Descending Denver Center
Sun 01:02:06 PM 39.2817 -104.8822 North 287 330 11,000 -532 Descending Denver Center
Sun 01:03:08 PM 39.3661 -104.9006 350° North 290 334 10,000 -677 Descending Denver Center
Sun 01:04:10 PM 39.4447 -104.9150 352° North 287 330 9,600 -677 Descending Denver Center
Sun 01:05:12 PM 39.5214 -104.9308 351° North 279 321 8,600 -774 Descending Denver Center
Sun 01:06:14 PM 39.5928 -104.9475 350° North 258 297 8,000 -290 Descending Denver Center
Sun 01:07:16 PM 39.6356 -104.9106 34° Northeast 188 216 8,000 -581 Level Denver Center
Sun 01:08:18 PM 39.6333 -104.8547 93° East 162 186 6,800 -1,016 Descending Denver Center
Sun 01:09:20 PM 39.5875 -104.8519 177° South 140 161 5,900 -871 Descending Denver Center

Login

Don't have an account? Register now (free) for customized features, flight alerts, and more!